sensor_id;sensor_type;location;lat;lon;timestamp;P1;durP1;ratioP1;P2;durP2;ratioP2
12435;SDS011;6282;51.440;6.938;2023-04-25T00:01:34;9.02;;;3.08;;
12435;SDS011;6282;51.440;6.938;2023-04-25T00:04:02;10.07;;;3.80;;
12435;SDS011;6282;51.440;6.938;2023-04-25T00:06:30;9.17;;;3.37;;
12435;SDS011;6282;51.440;6.938;2023-04-25T00:08:58;7.45;;;3.40;;
12435;SDS011;6282;51.440;6.938;2023-04-25T00:11:24;8.60;;;3.53;;
12435;SDS011;6282;51.440;6.938;2023-04-25T00:13:51;7.20;;;3.50;;
12435;SDS011;6282;51.440;6.938;2023-04-25T00:16:19;4.75;;;2.90;;
12435;SDS011;6282;51.440;6.938;2023-04-25T00:18:47;9.37;;;3.70;;
12435;SDS011;6282;51.440;6.938;2023-04-25T00:21:16;7.90;;;3.58;;
12435;SDS011;6282;51.440;6.938;2023-04-25T00:23:44;8.25;;;3.33;;
12435;SDS011;6282;51.440;6.938;2023-04-25T00:26:11;8.30;;;3.30;;
12435;SDS011;6282;51.440;6.938;2023-04-25T00:28:38;7.78;;;3.13;;
12435;SDS011;6282;51.440;6.938;2023-04-25T00:31:05;8.10;;;3.00;;
12435;SDS011;6282;51.440;6.938;2023-04-25T00:33:32;6.72;;;3.15;;
12435;SDS011;6282;51.440;6.938;2023-04-25T00:36:01;8.50;;;3.38;;
12435;SDS011;6282;51.440;6.938;2023-04-25T00:38:28;8.60;;;3.40;;
12435;SDS011;6282;51.440;6.938;2023-04-25T00:40:55;11.15;;;3.40;;
12435;SDS011;6282;51.440;6.938;2023-04-25T00:43:22;8.30;;;3.55;;
12435;SDS011;6282;51.440;6.938;2023-04-25T00:45:51;13.05;;;3.30;;
12435;SDS011;6282;51.440;6.938;2023-04-25T00:48:19;6.50;;;3.22;;
12435;SDS011;6282;51.440;6.938;2023-04-25T00:50:49;5.95;;;3.60;;
12435;SDS011;6282;51.440;6.938;2023-04-25T00:53:20;8.77;;;3.85;;
12435;SDS011;6282;51.440;6.938;2023-04-25T00:55:47;11.13;;;4.28;;
12435;SDS011;6282;51.440;6.938;2023-04-25T00:58:15;7.60;;;3.93;;
12435;SDS011;6282;51.440;6.938;2023-04-25T01:00:43;8.60;;;3.85;;
12435;SDS011;6282;51.440;6.938;2023-04-25T01:03:11;9.27;;;4.00;;
12435;SDS011;6282;51.440;6.938;2023-04-25T01:05:39;8.63;;;3.83;;
12435;SDS011;6282;51.440;6.938;2023-04-25T01:08:07;11.83;;;4.33;;
12435;SDS011;6282;51.440;6.938;2023-04-25T01:10:35;11.23;;;4.90;;
12435;SDS011;6282;51.440;6.938;2023-04-25T01:13:02;8.63;;;4.00;;
12435;SDS011;6282;51.440;6.938;2023-04-25T01:15:30;9.10;;;4.03;;
12435;SDS011;6282;51.440;6.938;2023-04-25T01:17:57;7.00;;;4.07;;
12435;SDS011;6282;51.440;6.938;2023-04-25T01:20:25;8.97;;;3.73;;
12435;SDS011;6282;51.440;6.938;2023-04-25T01:22:54;11.20;;;4.57;;
12435;SDS011;6282;51.440;6.938;2023-04-25T01:25:22;8.50;;;3.97;;
12435;SDS011;6282;51.440;6.938;2023-04-25T01:27:49;8.98;;;4.25;;
12435;SDS011;6282;51.440;6.938;2023-04-25T01:30:16;7.38;;;4.28;;
12435;SDS011;6282;51.440;6.938;2023-04-25T01:32:43;14.68;;;4.53;;
12435;SDS011;6282;51.440;6.938;2023-04-25T01:35:11;8.47;;;4.23;;
12435;SDS011;6282;51.440;6.938;2023-04-25T01:37:38;10.07;;;4.17;;
12435;SDS011;6282;51.440;6.938;2023-04-25T01:40:07;10.57;;;5.03;;
12435;SDS011;6282;51.440;6.938;2023-04-25T01:42:36;10.20;;;4.88;;
12435;SDS011;6282;51.440;6.938;2023-04-25T01:45:06;10.43;;;4.43;;
12435;SDS011;6282;51.440;6.938;2023-04-25T01:47:34;11.27;;;3.60;;
12435;SDS011;6282;51.440;6.938;2023-04-25T01:50:01;8.88;;;4.88;;
12435;SDS011;6282;51.440;6.938;2023-04-25T01:52:28;10.07;;;4.27;;
12435;SDS011;6282;51.440;6.938;2023-04-25T01:54:55;8.88;;;3.78;;
12435;SDS011;6282;51.440;6.938;2023-04-25T01:57:24;8.03;;;4.47;;
12435;SDS011;6282;51.440;6.938;2023-04-25T01:59:51;10.63;;;4.23;;
12435;SDS011;6282;51.440;6.938;2023-04-25T02:02:20;8.57;;;3.70;;
12435;SDS011;6282;51.440;6.938;2023-04-25T02:04:47;7.03;;;3.93;;
12435;SDS011;6282;51.440;6.938;2023-04-25T02:07:14;8.45;;;4.00;;
12435;SDS011;6282;51.440;6.938;2023-04-25T02:09:41;8.73;;;3.85;;
12435;SDS011;6282;51.440;6.938;2023-04-25T02:12:09;7.55;;;4.15;;
12435;SDS011;6282;51.440;6.938;2023-04-25T02:14:37;8.40;;;4.27;;
12435;SDS011;6282;51.440;6.938;2023-04-25T02:17:04;11.10;;;4.05;;
12435;SDS011;6282;51.440;6.938;2023-04-25T02:19:32;11.95;;;4.32;;
12435;SDS011;6282;51.440;6.938;2023-04-25T02:21:58;10.18;;;4.25;;
12435;SDS011;6282;51.440;6.938;2023-04-25T02:24:26;9.20;;;4.10;;
12435;SDS011;6282;51.440;6.938;2023-04-25T02:26:54;8.85;;;5.03;;
12435;SDS011;6282;51.440;6.938;2023-04-25T02:29:21;7.10;;;4.20;;
12435;SDS011;6282;51.440;6.938;2023-04-25T02:31:49;9.88;;;4.15;;
12435;SDS011;6282;51.440;6.938;2023-04-25T02:34:16;8.87;;;4.57;;
12435;SDS011;6282;51.440;6.938;2023-04-25T02:36:43;7.27;;;4.47;;
12435;SDS011;6282;51.440;6.938;2023-04-25T02:39:10;10.23;;;4.68;;
12435;SDS011;6282;51.440;6.938;2023-04-25T02:41:36;11.83;;;4.87;;
12435;SDS011;6282;51.440;6.938;2023-04-25T02:44:03;9.40;;;4.83;;
12435;SDS011;6282;51.440;6.938;2023-04-25T02:46:31;11.93;;;4.80;;
12435;SDS011;6282;51.440;6.938;2023-04-25T02:48:59;8.63;;;4.33;;
12435;SDS011;6282;51.440;6.938;2023-04-25T02:53:59;8.67;;;4.63;;
12435;SDS011;6282;51.440;6.938;2023-04-25T02:56:26;11.87;;;5.00;;
12435;SDS011;6282;51.440;6.938;2023-04-25T02:58:53;10.03;;;5.50;;
12435;SDS011;6282;51.440;6.938;2023-04-25T03:01:20;9.93;;;4.70;;
12435;SDS011;6282;51.440;6.938;2023-04-25T03:03:47;12.73;;;5.50;;
12435;SDS011;6282;51.440;6.938;2023-04-25T03:06:15;14.27;;;4.67;;
12435;SDS011;6282;51.440;6.938;2023-04-25T03:08:42;11.20;;;4.80;;
12435;SDS011;6282;51.440;6.938;2023-04-25T03:11:09;8.87;;;4.63;;
12435;SDS011;6282;51.440;6.938;2023-04-25T03:13:35;10.27;;;5.15;;
12435;SDS011;6282;51.440;6.938;2023-04-25T03:16:02;7.78;;;4.75;;
12435;SDS011;6282;51.440;6.938;2023-04-25T03:18:29;11.67;;;5.07;;
12435;SDS011;6282;51.440;6.938;2023-04-25T03:20:56;10.88;;;5.25;;
12435;SDS011;6282;51.440;6.938;2023-04-25T03:23:25;12.90;;;5.30;;
12435;SDS011;6282;51.440;6.938;2023-04-25T03:25:52;10.77;;;4.97;;
12435;SDS011;6282;51.440;6.938;2023-04-25T03:28:18;12.57;;;5.63;;
12435;SDS011;6282;51.440;6.938;2023-04-25T03:30:46;9.38;;;5.10;;
12435;SDS011;6282;51.440;6.938;2023-04-25T03:33:12;11.23;;;5.55;;
12435;SDS011;6282;51.440;6.938;2023-04-25T03:35:39;11.00;;;5.03;;
12435;SDS011;6282;51.440;6.938;2023-04-25T03:38:07;10.63;;;5.20;;
12435;SDS011;6282;51.440;6.938;2023-04-25T03:40:35;8.37;;;4.87;;
12435;SDS011;6282;51.440;6.938;2023-04-25T03:43:02;10.77;;;5.18;;
12435;SDS011;6282;51.440;6.938;2023-04-25T03:45:29;12.10;;;5.07;;
12435;SDS011;6282;51.440;6.938;2023-04-25T03:47:56;16.23;;;5.43;;
12435;SDS011;6282;51.440;6.938;2023-04-25T03:50:23;10.02;;;4.90;;
12435;SDS011;6282;51.440;6.938;2023-04-25T03:52:49;12.90;;;4.10;;
12435;SDS011;6282;51.440;6.938;2023-04-25T03:55:16;9.87;;;4.50;;
12435;SDS011;6282;51.440;6.938;2023-04-25T03:57:45;12.43;;;5.07;;
12435;SDS011;6282;51.440;6.938;2023-04-25T04:00:12;8.77;;;4.65;;
12435;SDS011;6282;51.440;6.938;2023-04-25T04:02:40;10.77;;;4.97;;
12435;SDS011;6282;51.440;6.938;2023-04-25T04:05:07;16.90;;;6.40;;
12435;SDS011;6282;51.440;6.938;2023-04-25T04:07:34;16.00;;;5.83;;
12435;SDS011;6282;51.440;6.938;2023-04-25T04:10:05;13.47;;;5.13;;
12435;SDS011;6282;51.440;6.938;2023-04-25T04:12:32;13.77;;;6.37;;
12435;SDS011;6282;51.440;6.938;2023-04-25T04:15:00;12.03;;;6.00;;
12435;SDS011;6282;51.440;6.938;2023-04-25T04:17:28;17.55;;;6.72;;
12435;SDS011;6282;51.440;6.938;2023-04-25T04:19:55;10.80;;;5.87;;
12435;SDS011;6282;51.440;6.938;2023-04-25T04:22:22;15.60;;;7.07;;
12435;SDS011;6282;51.440;6.938;2023-04-25T04:24:50;12.98;;;6.15;;
12435;SDS011;6282;51.440;6.938;2023-04-25T04:27:17;11.07;;;5.33;;
12435;SDS011;6282;51.440;6.938;2023-04-25T04:29:44;13.43;;;6.13;;
12435;SDS011;6282;51.440;6.938;2023-04-25T04:32:13;19.55;;;7.25;;
12435;SDS011;6282;51.440;6.938;2023-04-25T04:34:40;12.95;;;5.90;;
12435;SDS011;6282;51.440;6.938;2023-04-25T04:37:07;15.15;;;6.07;;
12435;SDS011;6282;51.440;6.938;2023-04-25T04:39:34;17.50;;;6.07;;
12435;SDS011;6282;51.440;6.938;2023-04-25T04:42:02;11.93;;;5.73;;
12435;SDS011;6282;51.440;6.938;2023-04-25T04:44:30;17.87;;;7.33;;
12435;SDS011;6282;51.440;6.938;2023-04-25T04:46:59;10.83;;;5.90;;
12435;SDS011;6282;51.440;6.938;2023-04-25T04:49:27;16.03;;;6.73;;
12435;SDS011;6282;51.440;6.938;2023-04-25T04:51:54;14.70;;;6.03;;
12435;SDS011;6282;51.440;6.938;2023-04-25T04:54:21;11.47;;;5.47;;
12435;SDS011;6282;51.440;6.938;2023-04-25T04:56:47;10.20;;;5.57;;
12435;SDS011;6282;51.440;6.938;2023-04-25T04:59:15;15.77;;;5.30;;
12435;SDS011;6282;51.440;6.938;2023-04-25T05:01:42;7.67;;;4.37;;
12435;SDS011;6282;51.440;6.938;2023-04-25T05:04:08;9.47;;;5.00;;
12435;SDS011;6282;51.440;6.938;2023-04-25T05:06:36;10.75;;;4.97;;
12435;SDS011;6282;51.440;6.938;2023-04-25T05:09:03;14.10;;;4.90;;
12435;SDS011;6282;51.440;6.938;2023-04-25T05:11:30;13.30;;;4.93;;
12435;SDS011;6282;51.440;6.938;2023-04-25T05:13:57;13.17;;;4.60;;
12435;SDS011;6282;51.440;6.938;2023-04-25T05:16:24;9.48;;;4.65;;
12435;SDS011;6282;51.440;6.938;2023-04-25T05:18:51;14.13;;;4.88;;
12435;SDS011;6282;51.440;6.938;2023-04-25T05:21:17;10.88;;;4.60;;
12435;SDS011;6282;51.440;6.938;2023-04-25T05:23:46;17.97;;;4.83;;
12435;SDS011;6282;51.440;6.938;2023-04-25T05:26:12;16.87;;;4.53;;
12435;SDS011;6282;51.440;6.938;2023-04-25T05:28:39;14.90;;;4.23;;
12435;SDS011;6282;51.440;6.938;2023-04-25T05:31:07;14.30;;;4.90;;
12435;SDS011;6282;51.440;6.938;2023-04-25T05:33:35;8.47;;;4.63;;
12435;SDS011;6282;51.440;6.938;2023-04-25T05:36:02;12.27;;;5.03;;
12435;SDS011;6282;51.440;6.938;2023-04-25T05:38:29;12.73;;;4.50;;
12435;SDS011;6282;51.440;6.938;2023-04-25T05:40:57;11.20;;;4.22;;
12435;SDS011;6282;51.440;6.938;2023-04-25T05:43:24;10.63;;;4.10;;
12435;SDS011;6282;51.440;6.938;2023-04-25T05:45:50;12.77;;;4.30;;
12435;SDS011;6282;51.440;6.938;2023-04-25T05:48:17;8.57;;;4.10;;
12435;SDS011;6282;51.440;6.938;2023-04-25T05:50:44;13.00;;;4.80;;
12435;SDS011;6282;51.440;6.938;2023-04-25T05:53:11;10.60;;;4.10;;
12435;SDS011;6282;51.440;6.938;2023-04-25T05:55:38;8.50;;;3.60;;
12435;SDS011;6282;51.440;6.938;2023-04-25T05:58:06;10.77;;;4.53;;
12435;SDS011;6282;51.440;6.938;2023-04-25T06:00:33;11.43;;;4.60;;
12435;SDS011;6282;51.440;6.938;2023-04-25T06:03:00;8.90;;;3.80;;
12435;SDS011;6282;51.440;6.938;2023-04-25T06:05:28;10.87;;;4.73;;
12435;SDS011;6282;51.440;6.938;2023-04-25T06:07:55;12.25;;;4.80;;
12435;SDS011;6282;51.440;6.938;2023-04-25T06:10:22;8.93;;;3.78;;
12435;SDS011;6282;51.440;6.938;2023-04-25T06:12:49;12.82;;;4.15;;
12435;SDS011;6282;51.440;6.938;2023-04-25T06:15:17;10.20;;;4.60;;
12435;SDS011;6282;51.440;6.938;2023-04-25T06:17:44;12.30;;;4.60;;
12435;SDS011;6282;51.440;6.938;2023-04-25T06:20:11;12.68;;;4.10;;
12435;SDS011;6282;51.440;6.938;2023-04-25T06:22:38;9.70;;;4.18;;
12435;SDS011;6282;51.440;6.938;2023-04-25T06:25:05;7.28;;;3.92;;
12435;SDS011;6282;51.440;6.938;2023-04-25T06:27:32;10.07;;;4.13;;
12435;SDS011;6282;51.440;6.938;2023-04-25T06:29:59;11.57;;;4.20;;
12435;SDS011;6282;51.440;6.938;2023-04-25T06:32:27;14.65;;;4.10;;
12435;SDS011;6282;51.440;6.938;2023-04-25T06:34:55;11.88;;;3.88;;
12435;SDS011;6282;51.440;6.938;2023-04-25T06:37:23;6.18;;;3.35;;
12435;SDS011;6282;51.440;6.938;2023-04-25T06:39:50;6.90;;;3.60;;
12435;SDS011;6282;51.440;6.938;2023-04-25T06:42:17;10.85;;;3.75;;
12435;SDS011;6282;51.440;6.938;2023-04-25T06:44:44;7.40;;;3.40;;
12435;SDS011;6282;51.440;6.938;2023-04-25T06:47:11;8.85;;;3.28;;
12435;SDS011;6282;51.440;6.938;2023-04-25T06:49:39;6.07;;;3.17;;
12435;SDS011;6282;51.440;6.938;2023-04-25T06:52:05;14.32;;;3.53;;
12435;SDS011;6282;51.440;6.938;2023-04-25T06:54:33;9.88;;;3.13;;
12435;SDS011;6282;51.440;6.938;2023-04-25T06:57:00;8.40;;;3.35;;
12435;SDS011;6282;51.440;6.938;2023-04-25T06:59:27;9.00;;;3.42;;
12435;SDS011;6282;51.440;6.938;2023-04-25T07:01:54;10.70;;;3.28;;
12435;SDS011;6282;51.440;6.938;2023-04-25T07:04:21;11.60;;;2.87;;
12435;SDS011;6282;51.440;6.938;2023-04-25T07:06:49;6.05;;;2.55;;
12435;SDS011;6282;51.440;6.938;2023-04-25T07:09:16;9.18;;;3.10;;
12435;SDS011;6282;51.440;6.938;2023-04-25T07:11:43;11.07;;;3.20;;
12435;SDS011;6282;51.440;6.938;2023-04-25T07:14:10;8.82;;;2.85;;
12435;SDS011;6282;51.440;6.938;2023-04-25T07:16:37;7.90;;;2.40;;
12435;SDS011;6282;51.440;6.938;2023-04-25T07:19:04;8.53;;;2.77;;
12435;SDS011;6282;51.440;6.938;2023-04-25T07:21:31;6.45;;;2.28;;
12435;SDS011;6282;51.440;6.938;2023-04-25T07:23:59;7.53;;;2.80;;
12435;SDS011;6282;51.440;6.938;2023-04-25T07:26:26;6.28;;;2.38;;
12435;SDS011;6282;51.440;6.938;2023-04-25T07:28:53;3.10;;;1.75;;
12435;SDS011;6282;51.440;6.938;2023-04-25T07:31:20;7.07;;;2.00;;
12435;SDS011;6282;51.440;6.938;2023-04-25T07:33:48;4.03;;;1.90;;
12435;SDS011;6282;51.440;6.938;2023-04-25T07:36:15;3.83;;;1.77;;
12435;SDS011;6282;51.440;6.938;2023-04-25T07:38:41;2.47;;;1.58;;
12435;SDS011;6282;51.440;6.938;2023-04-25T07:41:10;3.60;;;1.80;;
12435;SDS011;6282;51.440;6.938;2023-04-25T07:43:37;6.72;;;1.83;;
12435;SDS011;6282;51.440;6.938;2023-04-25T07:46:03;5.75;;;1.63;;
12435;SDS011;6282;51.440;6.938;2023-04-25T07:48:31;7.47;;;1.70;;
12435;SDS011;6282;51.440;6.938;2023-04-25T07:50:58;4.85;;;1.60;;
12435;SDS011;6282;51.440;6.938;2023-04-25T07:53:25;6.68;;;1.65;;
12435;SDS011;6282;51.440;6.938;2023-04-25T07:55:51;5.55;;;1.90;;
12435;SDS011;6282;51.440;6.938;2023-04-25T07:58:20;3.17;;;1.77;;
12435;SDS011;6282;51.440;6.938;2023-04-25T08:00:47;6.68;;;1.92;;
12435;SDS011;6282;51.440;6.938;2023-04-25T08:03:14;8.57;;;2.08;;
12435;SDS011;6282;51.440;6.938;2023-04-25T08:05:40;4.93;;;1.80;;
12435;SDS011;6282;51.440;6.938;2023-04-25T08:08:07;7.55;;;1.88;;
12435;SDS011;6282;51.440;6.938;2023-04-25T08:10:34;3.92;;;1.63;;
12435;SDS011;6282;51.440;6.938;2023-04-25T08:13:01;5.82;;;1.75;;
12435;SDS011;6282;51.440;6.938;2023-04-25T08:15:29;5.20;;;1.80;;
12435;SDS011;6282;51.440;6.938;2023-04-25T08:17:56;5.38;;;1.83;;
12435;SDS011;6282;51.440;6.938;2023-04-25T08:20:24;6.10;;;1.80;;
12435;SDS011;6282;51.440;6.938;2023-04-25T08:22:51;4.55;;;1.50;;
12435;SDS011;6282;51.440;6.938;2023-04-25T08:25:18;5.40;;;2.00;;
12435;SDS011;6282;51.440;6.938;2023-04-25T08:27:45;5.30;;;1.80;;
12435;SDS011;6282;51.440;6.938;2023-04-25T08:30:12;7.40;;;1.95;;
12435;SDS011;6282;51.440;6.938;2023-04-25T08:32:40;6.15;;;1.50;;
12435;SDS011;6282;51.440;6.938;2023-04-25T08:35:07;8.60;;;2.00;;
12435;SDS011;6282;51.440;6.938;2023-04-25T08:37:35;6.78;;;1.77;;
12435;SDS011;6282;51.440;6.938;2023-04-25T08:40:03;5.75;;;1.80;;
12435;SDS011;6282;51.440;6.938;2023-04-25T08:42:32;8.30;;;1.88;;
12435;SDS011;6282;51.440;6.938;2023-04-25T08:45:00;5.43;;;2.03;;
12435;SDS011;6282;51.440;6.938;2023-04-25T08:47:29;6.78;;;1.70;;
12435;SDS011;6282;51.440;6.938;2023-04-25T08:50:00;7.75;;;2.28;;
12435;SDS011;6282;51.440;6.938;2023-04-25T08:52:30;3.47;;;1.42;;
12435;SDS011;6282;51.440;6.938;2023-04-25T08:55:02;12.45;;;1.98;;
12435;SDS011;6282;51.440;6.938;2023-04-25T08:57:29;5.97;;;1.40;;
12435;SDS011;6282;51.440;6.938;2023-04-25T08:59:57;3.08;;;1.27;;
12435;SDS011;6282;51.440;6.938;2023-04-25T09:02:25;5.20;;;1.45;;
12435;SDS011;6282;51.440;6.938;2023-04-25T09:04:52;4.05;;;1.65;;
12435;SDS011;6282;51.440;6.938;2023-04-25T09:07:22;4.20;;;1.60;;
12435;SDS011;6282;51.440;6.938;2023-04-25T09:09:50;8.07;;;1.70;;
12435;SDS011;6282;51.440;6.938;2023-04-25T09:12:18;8.43;;;1.90;;
12435;SDS011;6282;51.440;6.938;2023-04-25T09:15:00;5.30;;;1.60;;
12435;SDS011;6282;51.440;6.938;2023-04-25T09:17:30;5.22;;;1.63;;
12435;SDS011;6282;51.440;6.938;2023-04-25T09:20:04;9.20;;;1.98;;
12435;SDS011;6282;51.440;6.938;2023-04-25T09:22:33;6.55;;;1.77;;
12435;SDS011;6282;51.440;6.938;2023-04-25T09:25:02;4.68;;;1.60;;
12435;SDS011;6282;51.440;6.938;2023-04-25T09:27:30;4.80;;;1.60;;
12435;SDS011;6282;51.440;6.938;2023-04-25T09:29:57;4.28;;;1.50;;
12435;SDS011;6282;51.440;6.938;2023-04-25T09:32:25;3.50;;;1.40;;
12435;SDS011;6282;51.440;6.938;2023-04-25T09:34:52;5.90;;;1.50;;
12435;SDS011;6282;51.440;6.938;2023-04-25T09:37:21;6.07;;;2.05;;
12435;SDS011;6282;51.440;6.938;2023-04-25T09:39:50;5.35;;;1.83;;
12435;SDS011;6282;51.440;6.938;2023-04-25T09:42:21;4.07;;;1.77;;
12435;SDS011;6282;51.440;6.938;2023-04-25T09:44:49;3.33;;;1.40;;
12435;SDS011;6282;51.440;6.938;2023-04-25T09:47:18;3.88;;;1.73;;
12435;SDS011;6282;51.440;6.938;2023-04-25T09:49:47;4.32;;;1.48;;
12435;SDS011;6282;51.440;6.938;2023-04-25T09:52:14;3.75;;;1.25;;
12435;SDS011;6282;51.440;6.938;2023-04-25T09:54:43;6.68;;;1.70;;
12435;SDS011;6282;51.440;6.938;2023-04-25T09:57:13;3.97;;;1.27;;
12435;SDS011;6282;51.440;6.938;2023-04-25T09:59:44;5.78;;;1.42;;
12435;SDS011;6282;51.440;6.938;2023-04-25T10:02:12;5.25;;;1.30;;
12435;SDS011;6282;51.440;6.938;2023-04-25T10:04:40;5.00;;;1.23;;
12435;SDS011;6282;51.440;6.938;2023-04-25T10:07:08;4.32;;;1.25;;
12435;SDS011;6282;51.440;6.938;2023-04-25T10:09:37;3.80;;;1.10;;
12435;SDS011;6282;51.440;6.938;2023-04-25T10:12:05;5.32;;;1.23;;
12435;SDS011;6282;51.440;6.938;2023-04-25T10:14:34;5.50;;;1.23;;
12435;SDS011;6282;51.440;6.938;2023-04-25T10:17:01;3.63;;;1.20;;
12435;SDS011;6282;51.440;6.938;2023-04-25T10:19:29;5.25;;;1.50;;
12435;SDS011;6282;51.440;6.938;2023-04-25T10:21:58;4.32;;;1.30;;
12435;SDS011;6282;51.440;6.938;2023-04-25T10:24:30;4.72;;;1.45;;
12435;SDS011;6282;51.440;6.938;2023-04-25T10:26:58;5.78;;;1.80;;
12435;SDS011;6282;51.440;6.938;2023-04-25T10:29:27;2.72;;;1.33;;
12435;SDS011;6282;51.440;6.938;2023-04-25T10:31:55;3.80;;;1.10;;
12435;SDS011;6282;51.440;6.938;2023-04-25T10:34:24;3.67;;;1.23;;
12435;SDS011;6282;51.440;6.938;2023-04-25T10:37:03;4.30;;;1.52;;
12435;SDS011;6282;51.440;6.938;2023-04-25T10:39:32;2.22;;;1.30;;
12435;SDS011;6282;51.440;6.938;2023-04-25T10:41:59;2.30;;;1.20;;
12435;SDS011;6282;51.440;6.938;2023-04-25T10:44:29;2.22;;;1.20;;
12435;SDS011;6282;51.440;6.938;2023-04-25T10:46:58;2.00;;;1.02;;
12435;SDS011;6282;51.440;6.938;2023-04-25T10:49:30;4.15;;;1.25;;
12435;SDS011;6282;51.440;6.938;2023-04-25T10:52:15;3.35;;;1.08;;
12435;SDS011;6282;51.440;6.938;2023-04-25T10:54:46;2.58;;;1.13;;
12435;SDS011;6282;51.440;6.938;2023-04-25T11:00:07;4.03;;;1.25;;
12435;SDS011;6282;51.440;6.938;2023-04-25T11:02:38;3.97;;;1.10;;
12435;SDS011;6282;51.440;6.938;2023-04-25T11:05:08;4.20;;;1.40;;
12435;SDS011;6282;51.440;6.938;2023-04-25T11:07:37;2.97;;;1.15;;
12435;SDS011;6282;51.440;6.938;2023-04-25T11:10:10;5.15;;;1.08;;
12435;SDS011;6282;51.440;6.938;2023-04-25T11:12:38;2.13;;;1.08;;
12435;SDS011;6282;51.440;6.938;2023-04-25T11:15:06;2.90;;;1.00;;
12435;SDS011;6282;51.440;6.938;2023-04-25T11:17:34;3.40;;;1.25;;
12435;SDS011;6282;51.440;6.938;2023-04-25T11:20:03;2.90;;;1.30;;
12435;SDS011;6282;51.440;6.938;2023-04-25T11:22:34;7.53;;;1.10;;
12435;SDS011;6282;51.440;6.938;2023-04-25T11:25:04;5.75;;;1.20;;
12435;SDS011;6282;51.440;6.938;2023-04-25T11:27:32;5.72;;;1.50;;
12435;SDS011;6282;51.440;6.938;2023-04-25T11:30:09;3.35;;;1.00;;
12435;SDS011;6282;51.440;6.938;2023-04-25T11:32:36;1.10;;;1.00;;
12435;SDS011;6282;51.440;6.938;2023-04-25T11:35:05;1.65;;;1.05;;
12435;SDS011;6282;51.440;6.938;2023-04-25T11:37:33;4.97;;;1.10;;
12435;SDS011;6282;51.440;6.938;2023-04-25T11:39:59;2.40;;;1.00;;
12435;SDS011;6282;51.440;6.938;2023-04-25T11:42:27;3.47;;;1.50;;
12435;SDS011;6282;51.440;6.938;2023-04-25T11:44:53;6.90;;;1.25;;
12435;SDS011;6282;51.440;6.938;2023-04-25T11:47:26;2.33;;;1.15;;
12435;SDS011;6282;51.440;6.938;2023-04-25T11:49:54;2.42;;;1.02;;
12435;SDS011;6282;51.440;6.938;2023-04-25T11:52:22;2.10;;;1.20;;
12435;SDS011;6282;51.440;6.938;2023-04-25T11:54:49;5.18;;;1.58;;
12435;SDS011;6282;51.440;6.938;2023-04-25T11:57:18;4.43;;;1.80;;
12435;SDS011;6282;51.440;6.938;2023-04-25T11:59:45;4.70;;;1.45;;
12435;SDS011;6282;51.440;6.938;2023-04-25T12:02:23;4.57;;;1.40;;
12435;SDS011;6282;51.440;6.938;2023-04-25T12:04:51;4.15;;;1.50;;
12435;SDS011;6282;51.440;6.938;2023-04-25T12:07:18;2.95;;;1.42;;
12435;SDS011;6282;51.440;6.938;2023-04-25T12:09:52;3.30;;;1.40;;
12435;SDS011;6282;51.440;6.938;2023-04-25T12:12:19;2.35;;;1.50;;
12435;SDS011;6282;51.440;6.938;2023-04-25T12:14:46;3.45;;;1.70;;
12435;SDS011;6282;51.440;6.938;2023-04-25T12:17:14;6.68;;;1.42;;
12435;SDS011;6282;51.440;6.938;2023-04-25T12:19:40;4.18;;;1.42;;
12435;SDS011;6282;51.440;6.938;2023-04-25T12:22:18;2.75;;;1.38;;
12435;SDS011;6282;51.440;6.938;2023-04-25T12:24:47;5.85;;;1.27;;
12435;SDS011;6282;51.440;6.938;2023-04-25T12:27:15;3.72;;;1.27;;
12435;SDS011;6282;51.440;6.938;2023-04-25T12:29:50;2.58;;;1.40;;
12435;SDS011;6282;51.440;6.938;2023-04-25T12:32:18;2.85;;;1.00;;
12435;SDS011;6282;51.440;6.938;2023-04-25T12:34:45;1.38;;;1.10;;
12435;SDS011;6282;51.440;6.938;2023-04-25T12:37:12;3.38;;;1.17;;
12435;SDS011;6282;51.440;6.938;2023-04-25T12:39:39;2.15;;;1.30;;
12435;SDS011;6282;51.440;6.938;2023-04-25T12:42:05;3.35;;;1.20;;
12435;SDS011;6282;51.440;6.938;2023-04-25T12:44:37;2.67;;;1.42;;
12435;SDS011;6282;51.440;6.938;2023-04-25T12:47:04;3.95;;;1.70;;
12435;SDS011;6282;51.440;6.938;2023-04-25T12:49:31;2.95;;;1.33;;
12435;SDS011;6282;51.440;6.938;2023-04-25T12:51:58;3.95;;;1.55;;
12435;SDS011;6282;51.440;6.938;2023-04-25T12:54:25;2.92;;;1.52;;
12435;SDS011;6282;51.440;6.938;2023-04-25T12:56:52;4.30;;;1.50;;
12435;SDS011;6282;51.440;6.938;2023-04-25T12:59:19;4.20;;;1.45;;
12435;SDS011;6282;51.440;6.938;2023-04-25T13:01:48;1.85;;;1.40;;
12435;SDS011;6282;51.440;6.938;2023-04-25T13:04:14;3.72;;;1.38;;
12435;SDS011;6282;51.440;6.938;2023-04-25T13:06:42;4.55;;;1.42;;
12435;SDS011;6282;51.440;6.938;2023-04-25T13:09:09;2.38;;;1.27;;
12435;SDS011;6282;51.440;6.938;2023-04-25T13:11:37;5.80;;;2.05;;
12435;SDS011;6282;51.440;6.938;2023-04-25T13:14:04;2.58;;;1.17;;
12435;SDS011;6282;51.440;6.938;2023-04-25T13:16:31;2.25;;;1.00;;
12435;SDS011;6282;51.440;6.938;2023-04-25T13:18:59;3.08;;;1.10;;
12435;SDS011;6282;51.440;6.938;2023-04-25T13:21:26;3.08;;;1.23;;
12435;SDS011;6282;51.440;6.938;2023-04-25T13:23:57;4.15;;;1.10;;
12435;SDS011;6282;51.440;6.938;2023-04-25T13:26:23;4.72;;;1.77;;
12435;SDS011;6282;51.440;6.938;2023-04-25T13:28:50;6.15;;;1.45;;
12435;SDS011;6282;51.440;6.938;2023-04-25T13:31:17;3.22;;;1.15;;
12435;SDS011;6282;51.440;6.938;2023-04-25T13:33:44;3.33;;;1.10;;
12435;SDS011;6282;51.440;6.938;2023-04-25T13:36:12;2.08;;;1.05;;
12435;SDS011;6282;51.440;6.938;2023-04-25T13:38:39;3.40;;;1.25;;
12435;SDS011;6282;51.440;6.938;2023-04-25T13:41:08;1.80;;;0.95;;
12435;SDS011;6282;51.440;6.938;2023-04-25T13:43:36;3.95;;;1.08;;
12435;SDS011;6282;51.440;6.938;2023-04-25T13:46:03;1.85;;;0.98;;
12435;SDS011;6282;51.440;6.938;2023-04-25T13:48:30;1.77;;;0.95;;
12435;SDS011;6282;51.440;6.938;2023-04-25T13:50:57;1.95;;;1.00;;
12435;SDS011;6282;51.440;6.938;2023-04-25T13:53:25;1.00;;;0.90;;
12435;SDS011;6282;51.440;6.938;2023-04-25T13:55:52;3.35;;;0.93;;
12435;SDS011;6282;51.440;6.938;2023-04-25T13:58:19;2.67;;;1.00;;
12435;SDS011;6282;51.440;6.938;2023-04-25T14:00:46;2.45;;;0.90;;
12435;SDS011;6282;51.440;6.938;2023-04-25T14:03:13;2.60;;;0.85;;
12435;SDS011;6282;51.440;6.938;2023-04-25T14:05:39;2.05;;;0.90;;
12435;SDS011;6282;51.440;6.938;2023-04-25T14:08:07;1.88;;;1.00;;
12435;SDS011;6282;51.440;6.938;2023-04-25T14:10:36;2.95;;;0.93;;
12435;SDS011;6282;51.440;6.938;2023-04-25T14:13:03;1.60;;;0.77;;
12435;SDS011;6282;51.440;6.938;2023-04-25T14:15:31;2.15;;;0.90;;
12435;SDS011;6282;51.440;6.938;2023-04-25T14:17:58;2.40;;;0.98;;
12435;SDS011;6282;51.440;6.938;2023-04-25T14:20:26;3.03;;;0.95;;
12435;SDS011;6282;51.440;6.938;2023-04-25T14:22:53;4.07;;;1.00;;
12435;SDS011;6282;51.440;6.938;2023-04-25T14:25:22;2.08;;;0.77;;
12435;SDS011;6282;51.440;6.938;2023-04-25T14:27:50;6.03;;;1.23;;
12435;SDS011;6282;51.440;6.938;2023-04-25T14:30:17;4.43;;;1.00;;
12435;SDS011;6282;51.440;6.938;2023-04-25T14:32:45;4.53;;;0.90;;
12435;SDS011;6282;51.440;6.938;2023-04-25T14:35:12;2.25;;;0.90;;
12435;SDS011;6282;51.440;6.938;2023-04-25T14:37:39;1.27;;;0.80;;
12435;SDS011;6282;51.440;6.938;2023-04-25T14:40:07;2.67;;;1.30;;
12435;SDS011;6282;51.440;6.938;2023-04-25T14:42:35;3.05;;;0.90;;
12435;SDS011;6282;51.440;6.938;2023-04-25T14:45:05;1.90;;;0.90;;
12435;SDS011;6282;51.440;6.938;2023-04-25T14:47:32;3.40;;;1.13;;
12435;SDS011;6282;51.440;6.938;2023-04-25T14:49:59;3.78;;;0.73;;
12435;SDS011;6282;51.440;6.938;2023-04-25T14:52:26;3.05;;;0.88;;
12435;SDS011;6282;51.440;6.938;2023-04-25T14:54:53;3.28;;;1.23;;
12435;SDS011;6282;51.440;6.938;2023-04-25T14:57:20;3.90;;;1.08;;
12435;SDS011;6282;51.440;6.938;2023-04-25T14:59:47;3.70;;;1.17;;
12435;SDS011;6282;51.440;6.938;2023-04-25T15:02:15;1.80;;;0.98;;
12435;SDS011;6282;51.440;6.938;2023-04-25T15:04:42;3.55;;;1.30;;
12435;SDS011;6282;51.440;6.938;2023-04-25T15:07:09;3.70;;;1.20;;